Quick Links (Output Below):   Max & Min Temps   /   Climate Reports   /   Zone Forecasts
River Forecasts   /   Forestry Forecasts   /   Aviation Forecasts   /   Radars   /   Features

Terminal Aerodrome Forecast (Little Rock)

Pick a Site:
Arkadelphia | El Dorado | Fayetteville | Fort Smith | Harrison | Highfill | Hot Springs | Jonesboro
Little Rock | Monticello | Mountain Home | Pine Bluff | Texarkana
 Forecast 

KLIT 240539Z 2406/2506 12004KT P6SM BKN250
     FM241300 18010KT P6SM SCT040 SCT250
     FM241700 19012G20KT P6SM VCSH SCT040 OVC080
     FM250300 27013G23KT P6SM SCT040=


 Latest METARs (Observations) 
How to Decode METARs
11Z KLIT 241053Z 00000KT 10SM BKN065 BKN250 14/10 A2988 RMK AO2 SLP118
         T01390100
         
10Z KLIT 240953Z 00000KT 10SM SCT065 14/10 A2987 RMK AO2 SLP116
         T01390100
         
09Z KLIT 240853Z 00000KT 10SM SCT065 14/10 A2988 RMK AO2 SLP117
         T01390100 57004
         
08Z KLIT 240753Z 00000KT 10SM BKN065 13/09 A2988 RMK AO2 SLP119
         T01330089
         
07Z KLIT 240653Z 00000KT 10SM SCT150 14/08 A2988 RMK AO2 SLP119
         T01390078
         
06Z KLIT 240553Z 00000KT 10SM BKN250 16/08 A2989 RMK AO2 SLP121
         T01560078 10239 20144 402560106 58005
         
05Z KLIT 240453Z 11004KT 10SM BKN250 16/08 A2990 RMK AO2 SLP125
         T01610078
         
04Z KLIT 240353Z 13004KT 10SM BKN250 17/08 A2991 RMK AO2 SLP131
         T01670078
         
03Z KLIT 240253Z 13004KT 10SM BKN250 18/08 A2990 RMK AO2 SLP127
         T01780083 55001
         
02Z KLIT 240153Z 11007KT 10SM BKN250 18/08 A2989 RMK AO2 SLP124
         T01830078
         
***** Today's Observations (Above) *****


Back to Main Page
http://www.srh.noaa.gov/lzk/qfcst.php

USA.gov is the U.S. government's official web portal to all federal, state and local government web resources and services.